Kapetan Minas — SV9615 — position and weather

sailwx.info

Track history (hours):
 
Tides and Currents Weather Stations Pressure Air Temp Water Temp Dewpoint Dewpoint Depression Visibility Wind Speed Wind Dir Waves Ship Positions

Kapetan Minas

Last reported at 2018-Feb-06 13:21 UTC. Time now 2018-Jul-16 12:46 UTC.
Position N 40°11' E 024°24'.
Warning: this ship's position is months out of date.

Length 23 m; draft 2.2 m.

Type: Fishing. MMSI: 239058000.

Date/timePositionNaut miles runAvg speedWind from/ knotsBaromVisibWave heightAir tempDewpointWater temp
2018-Feb-06 13:21N 40°11' E 024°24'310.3
2018-Feb-06 13:00N 40°14' E 024°24'510.3
2018-Feb-06 12:29N 40°20' E 024°24'14 9.7
2018-Feb-06 11:03N 40°33' E 024°29'1 9.4
2018-Feb-06 10:59N 40°34' E 024°29'5 9.5
2018-Feb-06 10:29N 40°39' E 024°30'510.0
2018-Feb-06 10:00N 40°43' E 024°31'9 9.2
2018-Feb-06 09:00N 40°51' E 024°38'3 4.7
2018-Feb-06 08:21N 40°52' E 024°42'0 0.0
2018-Feb-06 07:54N 40°52' E 024°42'0 1.0
2018-Feb-06 07:28N 40°52' E 024°42'0 0.0
2018-Feb-06 06:58N 40°52' E 024°42'0 0.0
2018-Feb-06 06:28N 40°52' E 024°42'0 0.0
2018-Feb-05 14:46N 40°52' E 024°42'0 0.0
2018-Feb-05 14:28N 40°52' E 024°42'0 0.0
2018-Feb-05 13:58N 40°52' E 024°42'0 0.0
2018-Feb-05 13:28N 40°52' E 024°42'0 0.0
2018-Feb-05 12:58N 40°52' E 024°42'0 0.0
2018-Feb-05 12:28N 40°52' E 024°42'0 0.0
2018-Feb-05 11:58N 40°52' E 024°42'0 0.0
2018-Feb-05 11:28N 40°52' E 024°42'0 0.0
2018-Feb-05 10:58N 40°52' E 024°42'0 0.0
2018-Feb-05 10:28N 40°52' E 024°42'0 0.0
2018-Feb-05 09:40N 40°52' E 024°42'0 0.0
2018-Feb-05 09:28N 40°52' E 024°42'  
Track history (hours):
 
Tides and Currents Weather Stations Pressure Air Temp Water Temp Dewpoint Dewpoint Depression Visibility Wind Speed Wind Dir Waves Ship Positions

Kapetan Minas

Last reported at 2018-Feb-06 13:21 UTC. Time now 2018-Jul-16 12:46 UTC.
Position N 40°11' E 024°24'.
Warning: this ship's position is months out of date.

Length 23 m; draft 2.2 m.

Type: Fishing. MMSI: 239058000.

Date/timePositionNaut miles runAvg speedWind from/ knotsBaromVisibWave heightAir tempDewpointWater temp
2018-Feb-06 13:21N 40°11' E 024°24'310.3
2018-Feb-06 13:00N 40°14' E 024°24'510.3
2018-Feb-06 12:29N 40°20' E 024°24'14 9.7
2018-Feb-06 11:03N 40°33' E 024°29'1 9.4
2018-Feb-06 10:59N 40°34' E 024°29'5 9.5
2018-Feb-06 10:29N 40°39' E 024°30'510.0
2018-Feb-06 10:00N 40°43' E 024°31'9 9.2
2018-Feb-06 09:00N 40°51' E 024°38'3 4.7
2018-Feb-06 08:21N 40°52' E 024°42'0 0.0
2018-Feb-06 07:54N 40°52' E 024°42'0 1.0
2018-Feb-06 07:28N 40°52' E 024°42'0 0.0
2018-Feb-06 06:58N 40°52' E 024°42'0 0.0
2018-Feb-06 06:28N 40°52' E 024°42'0 0.0
2018-Feb-05 14:46N 40°52' E 024°42'0 0.0
2018-Feb-05 14:28N 40°52' E 024°42'0 0.0
2018-Feb-05 13:58N 40°52' E 024°42'0 0.0
2018-Feb-05 13:28N 40°52' E 024°42'0 0.0
2018-Feb-05 12:58N 40°52' E 024°42'0 0.0
2018-Feb-05 12:28N 40°52' E 024°42'0 0.0
2018-Feb-05 11:58N 40°52' E 024°42'0 0.0
2018-Feb-05 11:28N 40°52' E 024°42'0 0.0
2018-Feb-05 10:58N 40°52' E 024°42'0 0.0
2018-Feb-05 10:28N 40°52' E 024°42'0 0.0
2018-Feb-05 09:40N 40°52' E 024°42'0 0.0
2018-Feb-05 09:28N 40°52' E 024°42'  

Dump ship's entire track history